createdAt,value
2019-05-14T00:01:03.187Z,95.50
2019-05-14T00:03:31.119Z,95.20
2019-05-14T00:05:59.247Z,95.10
2019-05-14T00:08:46.576Z,95.10
2019-05-14T00:11:14.382Z,96.00
2019-05-14T00:13:42.271Z,95.10
2019-05-14T00:16:11.878Z,95.30
2019-05-14T00:18:41.893Z,95.30
2019-05-14T00:21:09.455Z,95.00
2019-05-14T00:23:37.270Z,95.30
2019-05-14T00:26:05.227Z,95.30
2019-05-14T00:28:33.209Z,95.30
2019-05-14T00:31:02.881Z,95.50
2019-05-14T00:33:31.528Z,95.50
2019-05-14T00:36:01.869Z,95.40
2019-05-14T00:38:31.344Z,95.30
2019-05-14T00:40:58.689Z,95.40
2019-05-14T00:43:26.498Z,95.50
2019-05-14T00:45:54.387Z,95.50
2019-05-14T00:48:22.298Z,95.60
2019-05-14T00:50:51.590Z,95.70
2019-05-14T00:53:21.340Z,95.50
2019-05-14T00:55:51.504Z,95.50
2019-05-14T00:58:19.026Z,95.60
2019-05-14T01:00:46.911Z,95.40
2019-05-14T01:03:14.819Z,95.40
2019-05-14T01:05:42.772Z,95.60
2019-05-14T01:08:12.014Z,95.50
2019-05-14T01:10:41.744Z,95.40
2019-05-14T01:13:11.198Z,95.60
2019-05-14T01:15:41.335Z,95.50
2019-05-14T01:18:08.771Z,95.30
2019-05-14T01:20:36.650Z,95.50
2019-05-14T01:23:04.537Z,95.50
2019-05-14T01:25:33.633Z,95.60
2019-05-14T01:28:02.149Z,95.80
2019-05-14T01:30:31.927Z,95.80
2019-05-14T01:33:01.842Z,95.90
2019-05-14T01:35:31.154Z,95.80
2019-05-14T01:37:58.962Z,95.90
2019-05-14T01:40:26.853Z,96.00
2019-05-14T01:42:54.807Z,95.80
2019-05-14T01:45:27.866Z,95.90
2019-05-14T01:47:52.222Z,95.80
2019-05-14T01:50:21.593Z,95.80
2019-05-14T01:52:51.856Z,95.70
2019-05-14T01:55:19.278Z,95.70
2019-05-14T01:57:47.168Z,95.80
2019-05-14T02:00:15.272Z,95.80
2019-05-14T02:02:43.106Z,95.60
2019-05-14T02:05:12.527Z,96.00
2019-05-14T02:07:42.031Z,95.60
2019-05-14T02:10:11.657Z,95.50
2019-05-14T02:12:42.102Z,95.50
2019-05-14T02:15:11.863Z,95.50
2019-05-14T02:17:41.481Z,95.40
2019-05-14T02:20:09.026Z,95.30
2019-05-14T02:22:36.978Z,95.40
2019-05-14T02:25:06.370Z,95.50
2019-05-14T02:27:34.973Z,95.50
2019-05-14T02:30:03.648Z,95.40
2019-05-14T02:32:31.540Z,95.20
2019-05-14T02:34:59.519Z,95.30
2019-05-14T02:37:30.095Z,95.20
2019-05-14T02:39:59.715Z,95.10
2019-05-14T02:42:28.965Z,95.10
2019-05-14T02:44:59.108Z,95.10
2019-05-14T02:47:25.625Z,95.10
2019-05-14T02:49:53.523Z,95.00
2019-05-14T02:52:21.403Z,95.00
2019-05-14T02:54:49.792Z,95.00
2019-05-14T02:57:20.115Z,95.20
2019-05-14T02:59:50.107Z,95.20
2019-05-14T03:02:18.750Z,94.70
2019-05-14T03:04:49.564Z,95.00
2019-05-14T03:07:19.156Z,94.90
2019-05-14T03:09:45.856Z,94.90
2019-05-14T03:12:13.739Z,94.50
2019-05-14T03:14:41.690Z,94.80
2019-05-14T03:17:10.741Z,94.40
2019-05-14T03:19:40.866Z,94.30
2019-05-14T03:22:10.029Z,94.10
2019-05-14T03:24:39.772Z,94.10
2019-05-14T03:27:09.799Z,93.80
2019-05-14T03:29:39.927Z,93.80
2019-05-14T03:32:13.219Z,93.90
2019-05-14T03:34:42.143Z,93.80
2019-05-14T03:37:12.028Z,93.90
2019-05-14T03:39:35.871Z,93.90
2019-05-14T03:42:03.763Z,93.70
2019-05-14T03:44:31.711Z,94.10
2019-05-14T03:47:04.643Z,93.50
2019-05-14T03:49:29.302Z,93.50
2019-05-14T03:52:00.369Z,93.40
2019-05-14T03:54:29.572Z,93.20
2019-05-14T03:57:00.106Z,93.20
2019-05-14T03:59:28.854Z,93.00
2019-05-14T04:01:55.629Z,92.90
2019-05-14T04:04:23.588Z,93.00
2019-05-14T04:06:52.540Z,93.10
2019-05-14T04:09:21.026Z,93.10
2019-05-14T04:11:50.707Z,93.10
2019-05-14T04:14:20.366Z,93.00
2019-05-14T04:17:01.332Z,93.00
2019-05-14T04:19:20.751Z,93.20
2019-05-14T04:21:49.506Z,93.10
2019-05-14T04:24:19.997Z,92.80
2019-05-14T04:26:58.368Z,93.10
2019-05-14T04:29:20.028Z,93.20
2019-05-14T04:31:50.251Z,93.00
2019-05-14T04:34:19.524Z,93.20
2019-05-14T04:36:50.222Z,93.10
2019-05-14T04:39:19.594Z,93.20
2019-05-14T04:41:49.747Z,93.20
2019-05-14T04:44:19.161Z,93.10
2019-05-14T04:46:49.125Z,93.40
2019-05-14T04:49:15.506Z,93.10
2019-05-14T04:51:43.469Z,93.20
2019-05-14T04:54:11.357Z,93.20
2019-05-14T04:56:40.102Z,93.00
2019-05-14T04:59:10.362Z,92.90
2019-05-14T05:01:40.174Z,92.80
2019-05-14T05:04:09.619Z,92.60
2019-05-14T05:06:39.675Z,92.70
2019-05-14T05:09:09.348Z,92.70
2019-05-14T05:11:39.475Z,92.90
2019-05-14T05:14:08.846Z,92.80
2019-05-14T05:16:38.909Z,92.20
2019-05-14T05:19:05.946Z,92.60
2019-05-14T05:21:33.900Z,92.70
2019-05-14T05:24:01.783Z,92.80
2019-05-14T05:26:29.666Z,93.00
2019-05-14T05:29:03.765Z,93.10
2019-05-14T05:31:29.017Z,93.40
2019-05-14T05:33:58.196Z,93.70
2019-05-14T05:36:28.849Z,93.80
2019-05-14T05:38:55.915Z,93.80
2019-05-14T05:41:23.874Z,93.90
2019-05-14T05:43:51.786Z,94.10
2019-05-14T05:46:19.670Z,94.40
2019-05-14T05:48:48.289Z,94.40
2019-05-14T05:51:18.786Z,94.50
2019-05-14T05:53:48.166Z,94.80
2019-05-14T05:56:15.483Z,94.80
2019-05-14T05:58:43.368Z,94.80
2019-05-14T06:01:11.256Z,94.40
2019-05-14T06:03:39.453Z,94.40
2019-05-14T06:06:13.296Z,94.10
2019-05-14T06:08:38.831Z,94.10
2019-05-14T06:11:08.469Z,93.90
2019-05-14T06:13:36.032Z,94.20
2019-05-14T06:16:04.023Z,93.40
2019-05-14T06:18:34.918Z,93.70
2019-05-14T06:21:02.876Z,93.80
2019-05-14T06:23:30.758Z,93.20
2019-05-14T06:25:59.741Z,93.20
2019-05-14T06:28:33.128Z,93.00
2019-05-14T06:30:58.995Z,93.20
2019-05-14T06:33:28.615Z,93.20
2019-05-14T06:35:59.170Z,93.10
2019-05-14T06:38:26.290Z,93.20
2019-05-14T06:40:54.236Z,93.50
2019-05-14T06:43:22.243Z,93.40
2019-05-14T06:45:50.124Z,93.00
2019-05-14T06:48:29.929Z,93.10
2019-05-14T06:50:50.218Z,93.20
2019-05-14T06:53:19.486Z,92.80
2019-05-14T06:55:48.401Z,92.80
2019-05-14T06:58:20.277Z,92.60
2019-05-14T07:00:46.190Z,92.80
2019-05-14T07:03:14.179Z,92.90
2019-05-14T07:05:42.091Z,93.00
2019-05-14T07:08:10.101Z,92.90
2019-05-14T07:10:39.547Z,93.10
2019-05-14T07:13:08.600Z,93.10
2019-05-14T07:15:39.487Z,92.90
2019-05-14T07:18:08.640Z,93.00
2019-05-14T07:20:55.913Z,92.90
2019-05-14T07:23:23.795Z,93.60
2019-05-14T07:25:51.750Z,92.70
2019-05-14T07:28:19.709Z,92.70
2019-05-14T07:30:48.512Z,92.70
2019-05-14T07:33:18.326Z,92.40
2019-05-14T07:35:48.574Z,91.90
2019-05-14T07:38:15.707Z,91.70
2019-05-14T07:40:43.539Z,92.00
2019-05-14T07:43:11.423Z,92.30
2019-05-14T07:45:39.245Z,92.00
2019-05-14T07:48:09.328Z,92.20
2019-05-14T07:50:39.448Z,91.80
2019-05-14T07:53:08.545Z,92.10
2019-05-14T07:55:38.324Z,91.70
2019-05-14T07:58:05.373Z,92.20
2019-05-14T08:00:33.227Z,92.20
2019-05-14T08:03:01.179Z,92.30
2019-05-14T08:05:29.059Z,91.60
2019-05-14T08:07:58.583Z,91.90
2019-05-14T08:10:28.856Z,92.30
2019-05-14T08:12:56.243Z,92.00
2019-05-14T08:15:24.118Z,91.90
2019-05-14T08:17:52.083Z,91.50
2019-05-14T08:20:20.161Z,91.70
2019-05-14T08:22:49.048Z,91.30
2019-05-14T08:25:19.019Z,90.90
2019-05-14T08:27:48.209Z,91.10
2019-05-14T08:30:18.711Z,91.50
2019-05-14T08:32:46.059Z,91.10
2019-05-14T08:35:13.947Z,91.30
2019-05-14T08:37:41.827Z,91.10
2019-05-14T08:40:09.863Z,90.80
2019-05-14T08:42:38.336Z,90.90
2019-05-14T08:45:12.276Z,90.60
2019-05-14T08:47:38.851Z,90.30
2019-05-14T08:50:08.833Z,90.30
2019-05-14T08:52:35.904Z,90.10
2019-05-14T08:55:10.189Z,90.50
2019-05-14T08:57:34.709Z,90.70
2019-05-14T09:00:02.838Z,90.50
2019-05-14T09:02:30.708Z,90.50
2019-05-14T09:05:04.132Z,90.10
2019-05-14T09:07:28.919Z,90.50
2019-05-14T09:09:59.884Z,90.40
2019-05-14T09:12:28.113Z,89.40
2019-05-14T09:14:56.056Z,89.50
2019-05-14T09:17:24.046Z,90.00
2019-05-14T09:20:02.220Z,90.20
2019-05-14T09:22:21.514Z,90.40
2019-05-14T09:24:49.503Z,89.70
2019-05-14T09:27:19.235Z,90.00
2019-05-14T09:29:48.496Z,90.00
2019-05-14T09:32:19.021Z,90.00
2019-05-14T09:34:48.429Z,89.10
2019-05-14T09:37:15.650Z,88.90
2019-05-14T09:39:43.600Z,88.60
2019-05-14T09:42:11.486Z,88.00
2019-05-14T09:44:39.368Z,86.60
2019-05-14T09:47:08.552Z,87.00
2019-05-14T09:49:38.804Z,87.20
2019-05-14T09:52:06.288Z,87.40
2019-05-14T09:54:35.377Z,87.80
2019-05-14T09:57:03.255Z,87.20
2019-05-14T09:59:31.169Z,86.40
2019-05-14T10:02:00.119Z,86.60
2019-05-14T10:04:29.601Z,86.80
2019-05-14T10:06:59.257Z,86.60
2019-05-14T10:09:28.956Z,86.90
2019-05-14T10:11:58.033Z,88.00
2019-05-14T10:14:26.035Z,88.40
2019-05-14T10:16:54.085Z,88.40
2019-05-14T10:19:21.964Z,87.70
2019-05-14T10:21:49.843Z,88.10
2019-05-14T10:24:18.552Z,88.20
2019-05-14T10:26:48.954Z,87.90
2019-05-14T10:29:16.261Z,86.90
2019-05-14T10:31:44.142Z,86.20
2019-05-14T10:34:12.030Z,86.00
2019-05-14T10:36:40.090Z,85.90
2019-05-14T10:39:09.330Z,85.90
2019-05-14T10:41:38.438Z,86.10
2019-05-14T10:44:09.052Z,86.40
2019-05-14T10:46:38.242Z,86.90
2019-05-14T10:49:16.474Z,86.00
2019-05-14T10:51:35.251Z,86.80
2019-05-14T10:54:20.524Z,87.00
2019-05-14T10:56:32.667Z,87.20
2019-05-14T10:59:00.551Z,87.70
2019-05-14T11:01:28.621Z,88.00
2019-05-14T11:03:56.628Z,87.70
2019-05-14T11:06:24.519Z,87.50
2019-05-14T11:08:52.404Z,87.70
2019-05-14T11:11:20.291Z,87.50
2019-05-14T11:13:48.187Z,88.00
2019-05-14T11:16:16.069Z,88.10
2019-05-14T11:18:43.951Z,87.60
2019-05-14T11:21:24.759Z,85.10
2019-05-14T11:23:41.505Z,85.60
2019-05-14T11:26:09.479Z,85.10
2019-05-14T11:28:39.505Z,86.10
2019-05-14T11:31:09.180Z,86.90
2019-05-14T11:33:38.666Z,86.00
2019-05-14T11:36:08.992Z,85.20
2019-05-14T11:38:37.561Z,85.10
2019-05-14T11:41:05.214Z,84.80
2019-05-14T11:43:33.101Z,85.00
2019-05-14T11:46:00.977Z,85.00
2019-05-14T11:48:29.176Z,86.00
2019-05-14T11:50:59.332Z,85.60
2019-05-14T11:53:26.583Z,85.90
2019-05-14T11:55:54.470Z,84.70
2019-05-14T11:58:22.345Z,84.80
2019-05-14T12:00:50.296Z,84.40
2019-05-14T12:03:19.460Z,84.70
2019-05-14T12:05:49.392Z,84.90
2019-05-14T12:08:18.623Z,84.80
2019-05-14T12:10:46.814Z,84.10
2019-05-14T12:13:20.574Z,85.30
2019-05-14T12:15:48.757Z,85.40
2019-05-14T12:18:18.588Z,84.90
2019-05-14T12:20:46.282Z,83.40
2019-05-14T12:23:14.162Z,84.10
2019-05-14T12:25:42.073Z,83.70
2019-05-14T12:28:13.612Z,83.30
2019-05-14T12:30:39.747Z,83.10
2019-05-14T12:33:07.722Z,82.90
2019-05-14T12:35:35.606Z,83.40
2019-05-14T12:38:03.585Z,83.90
2019-05-14T12:40:31.468Z,83.30
2019-05-14T12:42:59.557Z,82.90
2019-05-14T12:45:29.883Z,82.90
2019-05-14T12:47:58.493Z,83.10
2019-05-14T12:50:26.728Z,83.70
2019-05-14T12:52:54.577Z,83.00
2019-05-14T12:55:22.442Z,83.10
2019-05-14T12:57:50.339Z,82.40
2019-05-14T13:00:18.394Z,82.20
2019-05-14T13:02:46.355Z,81.90
2019-05-14T13:05:14.643Z,82.20
2019-05-14T13:07:42.547Z,82.40
2019-05-14T13:10:10.748Z,82.20
2019-05-14T13:12:39.294Z,83.40
2019-05-14T13:15:08.707Z,82.20
2019-05-14T13:17:38.826Z,82.80
2019-05-14T13:20:13.109Z,83.20
2019-05-14T13:22:42.422Z,83.20
2019-05-14T13:25:05.938Z,83.00
2019-05-14T13:27:33.823Z,83.60
2019-05-14T13:30:01.716Z,84.10
2019-05-14T13:32:29.665Z,84.10
2019-05-14T13:34:59.159Z,84.20
2019-05-14T13:37:28.814Z,84.40
2019-05-14T13:39:59.041Z,85.50
2019-05-14T13:42:26.368Z,84.30
2019-05-14T13:44:54.265Z,85.10
2019-05-14T13:47:22.139Z,84.90
2019-05-14T13:49:50.031Z,84.50
2019-05-14T13:52:18.705Z,84.20
2019-05-14T13:54:46.799Z,85.30
2019-05-14T13:57:14.781Z,84.80
2019-05-14T13:59:44.684Z,84.40
2019-05-14T14:02:12.204Z,84.00
2019-05-14T14:04:40.088Z,83.40
2019-05-14T14:07:09.162Z,83.10
2019-05-14T14:09:39.459Z,83.00
2019-05-14T14:12:08.233Z,83.30
2019-05-14T14:14:38.681Z,83.40
2019-05-14T14:17:05.779Z,83.10
2019-05-14T14:19:33.726Z,82.90
2019-05-14T14:22:01.670Z,83.80
2019-05-14T14:24:29.621Z,83.30
2019-05-14T14:26:58.366Z,83.50
2019-05-14T14:29:26.411Z,83.20
2019-05-14T14:31:54.292Z,83.20
2019-05-14T14:34:22.260Z,82.70
2019-05-14T14:36:54.287Z,82.70
2019-05-14T14:39:19.686Z,83.20
2019-05-14T14:41:48.881Z,82.70
2019-05-14T14:44:19.759Z,83.20
2019-05-14T14:46:48.404Z,82.00
2019-05-14T14:49:18.768Z,81.90
2019-05-14T14:51:46.038Z,81.50
2019-05-14T14:54:16.211Z,81.50
2019-05-14T14:56:43.463Z,81.30
2019-05-14T14:59:11.376Z,81.30
2019-05-14T15:01:40.185Z,81.80
2019-05-14T15:04:13.821Z,81.30
2019-05-14T15:06:39.729Z,81.10
2019-05-14T15:09:09.720Z,81.40
2019-05-14T15:11:39.608Z,81.60
2019-05-14T15:14:08.448Z,81.50
2019-05-14T15:16:39.141Z,81.30
2019-05-14T15:19:06.027Z,81.20
2019-05-14T15:21:33.945Z,81.00
2019-05-14T15:24:10.092Z,80.50
2019-05-14T15:26:31.428Z,80.50
2019-05-14T15:28:59.319Z,80.90
2019-05-14T15:31:29.249Z,80.30
2019-05-14T15:33:59.344Z,80.00
2019-05-14T15:36:26.275Z,80.40
2019-05-14T15:38:54.159Z,79.80
2019-05-14T15:41:22.117Z,79.40
2019-05-14T15:43:49.997Z,79.30
2019-05-14T15:46:18.507Z,79.30
2019-05-14T15:48:48.677Z,79.30
2019-05-14T15:51:16.105Z,79.00
2019-05-14T15:54:05.015Z,78.60
2019-05-14T15:56:13.538Z,78.60
2019-05-14T15:58:41.424Z,77.50
2019-05-14T16:01:10.340Z,78.10
2019-05-14T16:03:41.479Z,77.70
2019-05-14T16:06:08.945Z,76.80
2019-05-14T16:08:39.821Z,77.00
2019-05-14T16:11:11.011Z,76.60
2019-05-14T16:13:36.136Z,76.70
2019-05-14T16:16:04.025Z,75.70
2019-05-14T16:18:31.984Z,75.80
2019-05-14T16:20:59.869Z,75.30
2019-05-14T16:23:28.187Z,75.10
2019-05-14T16:25:56.214Z,75.10
2019-05-14T16:28:24.056Z,73.70
2019-05-14T16:30:51.928Z,74.10
2019-05-14T16:33:19.904Z,73.90
2019-05-14T16:35:48.567Z,73.80
2019-05-14T16:38:16.747Z,74.10
2019-05-14T16:40:44.701Z,74.40
2019-05-14T16:43:12.581Z,75.20
2019-05-14T16:45:40.538Z,74.80
2019-05-14T16:48:10.912Z,75.00
2019-05-14T16:50:37.976Z,74.60
2019-05-14T16:53:11.290Z,75.00
2019-05-14T16:55:35.398Z,75.50
2019-05-14T16:58:03.381Z,75.80
2019-05-14T17:00:34.562Z,75.70
2019-05-14T17:03:00.760Z,76.30
2019-05-14T17:05:29.996Z,76.10
2019-05-14T17:07:58.754Z,76.20
2019-05-14T17:10:28.662Z,76.90
2019-05-14T17:12:57.429Z,76.80
2019-05-14T17:15:25.937Z,76.80
2019-05-14T17:17:53.887Z,77.20
2019-05-14T17:20:24.403Z,77.30
2019-05-14T17:22:51.379Z,77.50
2019-05-14T17:25:26.669Z,78.40
2019-05-14T17:27:48.817Z,77.30
2019-05-14T17:30:18.295Z,78.00
2019-05-14T17:32:46.424Z,77.70
2019-05-14T17:35:14.446Z,78.10
2019-05-14T17:37:42.331Z,78.50
2019-05-14T17:40:31.068Z,78.90
2019-05-14T17:42:59.264Z,78.90
2019-05-14T17:45:28.463Z,79.30
2019-05-14T17:47:58.523Z,79.30
2019-05-14T17:50:25.978Z,80.20
2019-05-14T17:52:56.445Z,80.20
2019-05-14T17:55:24.216Z,80.60
2019-05-14T17:57:58.375Z,81.00
2019-05-14T18:00:21.651Z,81.00
2019-05-14T18:02:49.540Z,81.10
2019-05-14T18:05:18.769Z,81.20
2019-05-14T18:07:48.262Z,81.10
2019-05-14T18:10:18.805Z,81.60
2019-05-14T18:12:47.969Z,81.90
2019-05-14T18:15:15.717Z,82.50
2019-05-14T18:17:43.607Z,82.40
2019-05-14T18:20:11.510Z,82.60
2019-05-14T18:22:42.362Z,82.50
2019-05-14T18:25:09.086Z,82.90
2019-05-14T18:27:39.221Z,83.90
2019-05-14T18:30:09.276Z,83.80
2019-05-14T18:32:36.872Z,84.10
2019-05-14T18:35:05.112Z,83.90
2019-05-14T18:37:33.011Z,83.80
2019-05-14T18:40:00.904Z,84.30
2019-05-14T18:42:29.701Z,84.20
2019-05-14T18:44:59.020Z,84.30
2019-05-14T18:47:29.100Z,84.70
2019-05-14T18:49:59.314Z,84.90
2019-05-14T18:52:29.422Z,85.70
2019-05-14T18:54:55.724Z,85.60
2019-05-14T18:57:23.609Z,86.00
2019-05-14T18:59:51.573Z,85.80
2019-05-14T19:02:19.461Z,86.40
2019-05-14T19:04:48.458Z,86.10
2019-05-14T19:07:18.679Z,86.60
2019-05-14T19:09:46.097Z,87.00
2019-05-14T19:12:13.999Z,87.20
2019-05-14T19:14:41.946Z,87.50
2019-05-14T19:17:09.878Z,87.60
2019-05-14T19:19:38.624Z,88.00
2019-05-14T19:22:06.746Z,88.00
2019-05-14T19:24:34.702Z,88.30
2019-05-14T19:27:02.583Z,88.50
2019-05-14T19:29:30.541Z,89.10
2019-05-14T19:31:58.424Z,88.70
2019-05-14T19:34:28.558Z,88.60
2019-05-14T19:36:55.728Z,88.60
2019-05-14T19:39:23.637Z,88.60
2019-05-14T19:41:51.515Z,88.90
2019-05-14T19:44:20.672Z,88.80
2019-05-14T19:46:49.214Z,89.30
2019-05-14T19:49:18.436Z,89.40
2019-05-14T19:51:48.262Z,90.00
2019-05-14T19:54:19.181Z,89.30
2019-05-14T19:56:53.176Z,89.30
2019-05-14T19:59:15.124Z,89.50
2019-05-14T20:01:43.008Z,89.80
2019-05-14T20:04:11.015Z,90.00
2019-05-14T20:06:39.097Z,90.30
2019-05-14T20:09:09.412Z,90.30
2019-05-14T20:11:38.934Z,90.50
2019-05-14T20:14:06.275Z,90.70
2019-05-14T20:16:34.095Z,90.80
2019-05-14T20:19:01.978Z,91.00
2019-05-14T20:21:29.945Z,91.20
2019-05-14T20:23:59.016Z,91.30
2019-05-14T20:26:28.149Z,91.40
2019-05-14T20:28:56.195Z,91.50
2019-05-14T20:31:24.095Z,91.50
2019-05-14T20:33:51.983Z,91.70
2019-05-14T20:36:19.851Z,91.70
2019-05-14T20:38:48.223Z,91.80
2019-05-14T20:41:18.002Z,91.90
2019-05-14T20:43:47.854Z,91.90
2019-05-14T20:46:18.347Z,91.90
2019-05-14T20:48:44.972Z,92.00
2019-05-14T20:51:12.851Z,92.00
2019-05-14T20:53:40.676Z,92.10
2019-05-14T20:56:08.560Z,92.10
2019-05-14T20:58:38.633Z,92.20
2019-05-14T21:01:10.848Z,92.10
2019-05-14T21:03:35.525Z,92.20
2019-05-14T21:06:03.403Z,92.20
2019-05-14T21:08:31.294Z,92.40
2019-05-14T21:10:59.279Z,92.50
2019-05-14T21:13:27.833Z,92.90
2019-05-14T21:15:55.772Z,92.50
2019-05-14T21:18:34.670Z,92.50
2019-05-14T21:20:53.246Z,92.60
2019-05-14T21:23:21.123Z,92.60
2019-05-14T21:25:48.939Z,92.70
2019-05-14T21:28:16.886Z,92.60
2019-05-14T21:30:44.857Z,92.80
2019-05-14T21:33:12.728Z,92.90
2019-05-14T21:35:40.613Z,93.00
2019-05-14T21:38:09.280Z,93.10
2019-05-14T21:40:38.926Z,93.10
2019-05-14T21:43:11.087Z,93.30
2019-05-14T21:45:38.283Z,93.30
2019-05-14T21:48:08.486Z,93.30
2019-05-14T21:50:35.570Z,93.40
2019-05-14T21:53:03.454Z,93.50
2019-05-14T21:55:31.334Z,93.50
2019-05-14T21:57:59.246Z,93.70
2019-05-14T22:00:30.233Z,93.80
2019-05-14T22:02:58.559Z,93.90
2019-05-14T22:05:28.437Z,94.00
2019-05-14T22:07:57.988Z,94.10
2019-05-14T22:10:25.637Z,94.20
2019-05-14T22:12:53.527Z,94.30
2019-05-14T22:15:21.410Z,94.40
2019-05-14T22:17:49.383Z,94.40
2019-05-14T22:20:19.249Z,94.40
2019-05-14T22:22:48.363Z,94.50
2019-05-14T22:25:18.749Z,94.50
2019-05-14T22:27:48.188Z,94.50
2019-05-14T22:30:18.031Z,94.50
2019-05-14T22:32:45.131Z,94.50
2019-05-14T22:35:13.026Z,94.30
2019-05-14T22:37:40.914Z,94.30
2019-05-14T22:40:09.003Z,94.20
2019-05-14T22:42:39.076Z,94.10
2019-05-14T22:45:09.148Z,94.00
2019-05-14T22:47:39.999Z,94.10
2019-05-14T22:50:08.784Z,94.00
2019-05-14T22:52:38.262Z,93.90
2019-05-14T22:55:05.991Z,93.80
2019-05-14T22:57:33.949Z,93.70
2019-05-14T23:00:01.809Z,93.70
2019-05-14T23:02:29.659Z,93.60
2019-05-14T23:04:58.522Z,93.30
2019-05-14T23:07:26.522Z,93.30
2019-05-14T23:09:54.412Z,93.40
2019-05-14T23:12:22.296Z,93.30
2019-05-14T23:14:50.179Z,93.30
2019-05-14T23:17:19.755Z,93.00
2019-05-14T23:19:48.374Z,92.80
2019-05-14T23:22:18.127Z,92.70
2019-05-14T23:24:45.955Z,92.80
2019-05-14T23:27:13.836Z,92.60
2019-05-14T23:29:42.917Z,92.40
2019-05-14T23:32:10.734Z,92.40
2019-05-14T23:34:38.683Z,92.50
2019-05-14T23:37:08.190Z,92.50
2019-05-14T23:39:38.195Z,92.60
2019-05-14T23:42:05.919Z,92.70
2019-05-14T23:44:35.306Z,92.70
2019-05-14T23:47:03.218Z,92.80
2019-05-14T23:49:31.103Z,92.70
2019-05-14T23:51:58.919Z,92.70
2019-05-14T23:54:28.973Z,92.80
2019-05-14T23:56:58.435Z,92.90
2019-05-14T23:59:25.962Z,93.00
